Time;durP1;ratioP1;P1;durP2;ratioP2;P2;SDS_P1;SDS_P2;PMS_P1;PMS_P2;Temp;Humidity;BMP_temperature;BMP_pressure;BME280_temperature;BME280_humidity;BME280_pressure;Samples;Min_cycle;Max_cycle;Signal;HPM_P1;HPM_P2
2023/03/31 00:01:45;;;;;;;;;;;;;;;;;;5031050;28;19925;-80
2023/03/31 00:04:13;;;;;;;;;;;;;;;;;;5030567;28;19925;-80
2023/03/31 00:06:45;;;;;;;;;;;;;;;;;;5030885;28;19926;-80
2023/03/31 00:09:13;;;;;;;;;;;;;;;;;;5031717;28;19932;-80
2023/03/31 00:11:40;;;;;;;;;;;;;;;;;;5029791;28;19925;-80
2023/03/31 00:14:08;;;;;;;;;;;;;;;;;;5029519;28;19929;-80
2023/03/31 00:16:35;;;;;;;;;;;;;;;;;;5029498;28;19932;-80
2023/03/31 00:19:16;;;;;;;;;;;;;;;;;;5032324;28;20306;-80
2023/03/31 00:21:44;;;;;;;;;;;;;;;;;;5028877;28;19929;-80
2023/03/31 00:24:16;;;;;;;;;;;;;;;;;;5031617;28;19936;-79
2023/03/31 00:26:49;;;;;;;;;;;;;;;;;;5028786;28;19956;-80
2023/03/31 00:29:22;;;;;;;;;;;;;;;;;;5024939;28;20397;-80
2023/03/31 00:31:49;;;;;;;;;;;;;;;;;;5027660;28;19940;-80
2023/03/31 00:34:16;;;;;;;;;;;;;;;;;;5031316;28;19925;-80
2023/03/31 00:36:49;;;;;;;;;;;;;;;;;;5039136;28;20385;-80
2023/03/31 00:39:17;;;;;;;;;;;;;;;;;;5014635;28;19925;-80
2023/03/31 00:41:49;;;;;;;;;;;;;;;;;;5046648;28;19925;-80
2023/03/31 00:44:21;;;;;;;;;;;;;;;;;;5030181;28;19932;-81
2023/03/31 00:46:54;;;;;;;;;;;;;;;;;;5045033;28;19936;-80
2023/03/31 00:49:21;;;;;;;;;;;;;;;;;;5045525;28;19929;-81
2023/03/31 00:51:49;;;;;;;;;;;;;;;;;;5029630;28;19929;-80
2023/03/31 00:54:18;;;;;;;;;;;;;;;;;;5045384;28;19925;-81
2023/03/31 00:56:46;;;;;;;;;;;;;;;;;;5030175;28;19941;-81
2023/03/31 00:59:14;;;;;;;;;;;;;;;;;;5030417;28;20501;-81
2023/03/31 01:01:42;;;;;;;;;;;;;;;;;;5029105;28;20293;-81
2023/03/31 01:04:09;;;;;;;;;;;;;;;;;;5045926;28;19929;-80
2023/03/31 01:06:41;;;;;;;;;;;;;;;;;;5030509;28;19925;-81
2023/03/31 01:09:08;;;;;;;;;;;;;;;;;;5030292;28;19925;-81
2023/03/31 01:11:36;;;;;;;;;;;;;;;;;;5044316;28;20382;-80
2023/03/31 01:14:03;;;;;;;;;;;;;;;;;;5029042;28;19925;-80
2023/03/31 01:16:32;;;;;;;;;;;;;;;;;;5028211;28;19936;-80
2023/03/31 01:19:05;;;;;;;;;;;;;;;;;;5038524;28;19925;-80
2023/03/31 01:21:32;;;;;;;;;;;;;;;;;;5027682;28;20401;-80
2023/03/31 01:24:00;;;;;;;;;;;;;;;;;;5030387;28;20294;-80
2023/03/31 01:26:32;;;;;;;;;;;;;;;;;;5037667;28;19929;-80
2023/03/31 01:29:00;;;;;;;;;;;;;;;;;;5027448;28;20282;-80
2023/03/31 01:31:32;;;;;;;;;;;;;;;;;;5025322;28;19932;-81
2023/03/31 01:34:05;;;;;;;;;;;;;;;;;;5029907;28;19925;-80
2023/03/31 01:36:39;;;;;;;;;;;;;;;;;;5027845;28;20042;-81
2023/03/31 01:39:07;;;;;;;;;;;;;;;;;;5038716;28;19925;-80
2023/03/31 01:41:40;;;;;;;;;;;;;;;;;;5039901;28;19929;-80
2023/03/31 01:44:08;;;;;;;;;;;;;;;;;;5029332;28;19925;-80
2023/03/31 01:46:35;;;;;;;;;;;;;;;;;;5028117;28;19932;-80
2023/03/31 01:49:03;;;;;;;;;;;;;;;;;;5028735;28;19925;-80
2023/03/31 01:51:35;;;;;;;;;;;;;;;;;;5029760;28;19932;-80
2023/03/31 01:54:03;;;;;;;;;;;;;;;;;;5028502;28;19925;-80
2023/03/31 01:56:35;;;;;;;;;;;;;;;;;;5038915;28;19925;-80
2023/03/31 01:59:08;;;;;;;;;;;;;;;;;;5028849;28;19925;-80
2023/03/31 02:01:36;;;;;;;;;;;;;;;;;;5030191;28;19925;-80
2023/03/31 02:04:04;;;;;;;;;;;;;;;;;;5025366;28;20739;-80
2023/03/31 02:06:32;;;;;;;;;;;;;;;;;;5026500;28;19948;-80
2023/03/31 02:08:59;;;;;;;;;;;;;;;;;;5028928;28;19937;-80
2023/03/31 02:11:27;;;;;;;;;;;;;;;;;;5028440;28;19951;-80
2023/03/31 02:14:01;;;;;;;;;;;;;;;;;;5029296;28;19937;-80
2023/03/31 02:16:29;;;;;;;;;;;;;;;;;;5028904;28;19933;-81
2023/03/31 02:19:02;;;;;;;;;;;;;;;;;;5039416;28;19925;-80
2023/03/31 02:21:30;;;;;;;;;;;;;;;;;;5028270;28;19940;-80
2023/03/31 02:24:04;;;;;;;;;;;;;;;;;;5029716;28;19925;-80
2023/03/31 02:26:36;;;;;;;;;;;;;;;;;;5029814;28;19929;-80
2023/03/31 02:29:04;;;;;;;;;;;;;;;;;;5028866;28;20309;-80
2023/03/31 02:31:31;;;;;;;;;;;;;;;;;;5027287;28;19929;-80
2023/03/31 02:34:06;;;;;;;;;;;;;;;;;;5040459;28;19929;-80
2023/03/31 02:36:38;;;;;;;;;;;;;;;;;;5027356;28;19926;-80
2023/03/31 02:39:06;;;;;;;;;;;;;;;;;;5028405;28;19933;-80
2023/03/31 02:41:34;;;;;;;;;;;;;;;;;;5029744;28;20474;-80
2023/03/31 02:44:01;;;;;;;;;;;;;;;;;;5027146;28;19929;-81
2023/03/31 02:46:34;;;;;;;;;;;;;;;;;;5031446;28;19925;-79
2023/03/31 02:49:01;;;;;;;;;;;;;;;;;;5028820;28;19929;-79
2023/03/31 02:51:30;;;;;;;;;;;;;;;;;;5045868;28;19932;-80
2023/03/31 02:53:59;;;;;;;;;;;;;;;;;;5029208;28;20325;-80
2023/03/31 02:56:45;;;;;;;;;;;;;;;;;;5038531;28;19940;-80
2023/03/31 02:59:12;;;;;;;;;;;;;;;;;;5031771;28;19925;-80
2023/03/31 03:01:40;;;;;;;;;;;;;;;;;;5031410;28;19929;-80
2023/03/31 03:04:12;;;;;;;;;;;;;;;;;;5032766;28;19925;-80
2023/03/31 03:06:40;;;;;;;;;;;;;;;;;;5023524;28;20464;-80
2023/03/31 03:09:21;;;;;;;;;;;;;;;;;;5033386;28;20420;-80
2023/03/31 03:11:49;;;;;;;;;;;;;;;;;;5032985;28;20301;-80
2023/03/31 03:14:21;;;;;;;;;;;;;;;;;;5029691;28;19933;-80
2023/03/31 03:16:54;;;;;;;;;;;;;;;;;;5035211;28;19926;-80
2023/03/31 03:19:27;;;;;;;;;;;;;;;;;;5047986;28;19925;-80
2023/03/31 03:21:54;;;;;;;;;;;;;;;;;;5028648;28;20374;-80
2023/03/31 03:24:22;;;;;;;;;;;;;;;;;;5031997;28;19932;-80
2023/03/31 03:26:50;;;;;;;;;;;;;;;;;;5033512;28;19925;-80
2023/03/31 03:29:23;;;;;;;;;;;;;;;;;;5031031;28;20370;-80
2023/03/31 03:31:50;;;;;;;;;;;;;;;;;;5031195;28;20420;-81
2023/03/31 03:34:24;;;;;;;;;;;;;;;;;;5031919;28;19929;-80
2023/03/31 03:36:57;;;;;;;;;;;;;;;;;;5033444;28;19925;-80
2023/03/31 03:39:24;;;;;;;;;;;;;;;;;;5048400;28;19925;-80
2023/03/31 03:41:52;;;;;;;;;;;;;;;;;;5029518;28;19936;-80
2023/03/31 03:44:24;;;;;;;;;;;;;;;;;;5031540;28;19936;-80
2023/03/31 03:46:57;;;;;;;;;;;;;;;;;;5032227;28;19925;-80
2023/03/31 03:49:29;;;;;;;;;;;;;;;;;;5030331;28;19925;-80
2023/03/31 03:52:02;;;;;;;;;;;;;;;;;;5027556;28;19929;-80
2023/03/31 03:54:29;;;;;;;;;;;;;;;;;;5031161;28;19932;-80
2023/03/31 03:57:02;;;;;;;;;;;;;;;;;;5032372;28;19925;-80
2023/03/31 03:59:29;;;;;;;;;;;;;;;;;;5031440;28;19936;-80
2023/03/31 04:01:57;;;;;;;;;;;;;;;;;;5031551;28;20263;-80
2023/03/31 04:04:24;;;;;;;;;;;;;;;;;;5030720;28;19935;-80
2023/03/31 04:06:52;;;;;;;;;;;;;;;;;;5031954;28;19929;-79
2023/03/31 04:09:19;;;;;;;;;;;;;;;;;;5029743;28;19948;-79
2023/03/31 04:11:47;;;;;;;;;;;;;;;;;;5031337;28;19925;-80
2023/03/31 04:14:14;;;;;;;;;;;;;;;;;;5030281;28;19929;-81
2023/03/31 04:16:45;;;;;;;;;;;;;;;;;;5032802;28;19925;-80
2023/03/31 04:19:12;;;;;;;;;;;;;;;;;;5030920;28;19925;-80
2023/03/31 04:21:49;;;;;;;;;;;;;;;;;;5029783;28;20389;-80
2023/03/31 04:24:20;;;;;;;;;;;;;;;;;;5031262;28;19925;-80
2023/03/31 04:26:49;;;;;;;;;;;;;;;;;;5032410;28;20289;-80
2023/03/31 04:29:25;;;;;;;;;;;;;;;;;;5021456;28;19948;-80
2023/03/31 04:31:57;;;;;;;;;;;;;;;;;;5045268;28;19932;-80
2023/03/31 04:34:33;;;;;;;;;;;;;;;;;;5029555;28;19933;-80
2023/03/31 04:37:01;;;;;;;;;;;;;;;;;;5028185;28;19936;-81
2023/03/31 04:39:29;;;;;;;;;;;;;;;;;;5031647;28;19929;-80
2023/03/31 04:41:57;;;;;;;;;;;;;;;;;;5030380;28;19932;-80
2023/03/31 04:44:24;;;;;;;;;;;;;;;;;;5030429;28;19937;-80
2023/03/31 04:46:52;;;;;;;;;;;;;;;;;;5036028;28;19932;-80
2023/03/31 04:49:19;;;;;;;;;;;;;;;;;;5030962;28;19929;-80
2023/03/31 04:51:47;;;;;;;;;;;;;;;;;;5029787;28;19929;-80
2023/03/31 04:54:14;;;;;;;;;;;;;;;;;;5031510;28;20281;-80
2023/03/31 04:56:47;;;;;;;;;;;;;;;;;;5032183;28;19925;-80
2023/03/31 04:59:14;;;;;;;;;;;;;;;;;;5027787;28;19929;-80
2023/03/31 05:01:44;;;;;;;;;;;;;;;;;;5020751;28;19929;-80
2023/03/31 05:04:11;;;;;;;;;;;;;;;;;;5024204;28;19936;-80
2023/03/31 05:06:39;;;;;;;;;;;;;;;;;;5028019;28;19932;-80
2023/03/31 05:09:08;;;;;;;;;;;;;;;;;;5025783;28;20309;-80
2023/03/31 05:11:36;;;;;;;;;;;;;;;;;;5028805;28;19956;-80
2023/03/31 05:14:04;;;;;;;;;;;;;;;;;;5029838;28;19929;-80
2023/03/31 05:16:31;;;;;;;;;;;;;;;;;;5029092;28;19928;-80
2023/03/31 05:19:04;;;;;;;;;;;;;;;;;;5026719;28;19925;-80
2023/03/31 05:21:31;;;;;;;;;;;;;;;;;;5020081;28;19929;-80
2023/03/31 05:24:04;;;;;;;;;;;;;;;;;;5030370;28;20271;-80
2023/03/31 05:26:37;;;;;;;;;;;;;;;;;;5032883;28;19933;-80
2023/03/31 05:29:04;;;;;;;;;;;;;;;;;;5028192;28;19936;-80
2023/03/31 05:31:32;;;;;;;;;;;;;;;;;;5044457;28;19932;-80
2023/03/31 05:34:05;;;;;;;;;;;;;;;;;;5026594;28;19929;-80
2023/03/31 05:36:32;;;;;;;;;;;;;;;;;;5030904;28;19925;-80
2023/03/31 05:39:00;;;;;;;;;;;;;;;;;;5029160;28;19932;-80
2023/03/31 05:41:32;;;;;;;;;;;;;;;;;;5029354;28;19932;-80
2023/03/31 05:44:00;;;;;;;;;;;;;;;;;;5028497;28;19932;-80
2023/03/31 05:46:28;;;;;;;;;;;;;;;;;;5027230;28;20294;-80
2023/03/31 05:48:56;;;;;;;;;;;;;;;;;;5031065;28;20388;-80
2023/03/31 05:51:23;;;;;;;;;;;;;;;;;;5025155;28;19925;-80
2023/03/31 05:53:51;;;;;;;;;;;;;;;;;;5021255;28;19925;-80
2023/03/31 05:56:18;;;;;;;;;;;;;;;;;;5025095;28;19940;-80
2023/03/31 05:58:46;;;;;;;;;;;;;;;;;;5030244;28;19936;-80
2023/03/31 06:01:18;;;;;;;;;;;;;;;;;;5022153;28;20515;-80
2023/03/31 06:03:45;;;;;;;;;;;;;;;;;;5024505;28;19929;-80
2023/03/31 06:06:13;;;;;;;;;;;;;;;;;;5022017;28;19926;-80
2023/03/31 06:08:41;;;;;;;;;;;;;;;;;;5027960;28;19933;-80
2023/03/31 06:11:08;;;;;;;;;;;;;;;;;;5025773;28;19925;-80
2023/03/31 06:13:36;;;;;;;;;;;;;;;;;;5028773;28;19925;-80
2023/03/31 06:16:03;;;;;;;;;;;;;;;;;;5024884;28;19925;-80
2023/03/31 06:18:36;;;;;;;;;;;;;;;;;;5021372;28;19925;-80
2023/03/31 06:21:03;;;;;;;;;;;;;;;;;;5027811;28;19929;-80
2023/03/31 06:23:36;;;;;;;;;;;;;;;;;;5043762;28;19926;-80
2023/03/31 06:26:03;;;;;;;;;;;;;;;;;;5026988;28;19932;-80
2023/03/31 06:28:36;;;;;;;;;;;;;;;;;;5026680;28;19936;-80
2023/03/31 06:31:08;;;;;;;;;;;;;;;;;;5045609;28;19940;-80
2023/03/31 06:33:36;;;;;;;;;;;;;;;;;;5030989;28;19936;-80
2023/03/31 06:36:04;;;;;;;;;;;;;;;;;;5032624;28;19932;-80
2023/03/31 06:38:32;;;;;;;;;;;;;;;;;;5031667;28;19929;-80
2023/03/31 06:41:04;;;;;;;;;;;;;;;;;;5025741;28;19933;-79
2023/03/31 06:43:32;;;;;;;;;;;;;;;;;;5047959;28;20314;-79
2023/03/31 06:46:04;;;;;;;;;;;;;;;;;;5029447;28;19925;-80
2023/03/31 06:48:32;;;;;;;;;;;;;;;;;;5030847;28;19952;-79
2023/03/31 06:50:59;;;;;;;;;;;;;;;;;;5030090;28;21899;-79
2023/03/31 06:53:27;;;;;;;;;;;;;;;;;;5026595;28;20377;-79
2023/03/31 06:55:54;;;;;;;;;;;;;;;;;;5046979;28;20406;-79
2023/03/31 06:58:27;;;;;;;;;;;;;;;;;;5032339;28;19929;-81
2023/03/31 07:00:54;;;;;;;;;;;;;;;;;;5028902;28;19929;-79
2023/03/31 07:03:28;;;;;;;;;;;;;;;;;;5030554;28;19933;-79
2023/03/31 07:05:55;;;;;;;;;;;;;;;;;;5031798;28;19929;-79
2023/03/31 07:08:23;;;;;;;;;;;;;;;;;;5030077;28;20428;-79
2023/03/31 07:10:51;;;;;;;;;;;;;;;;;;5029898;28;19936;-80
2023/03/31 07:13:19;;;;;;;;;;;;;;;;;;5030003;28;20282;-80
2023/03/31 07:15:46;;;;;;;;;;;;;;;;;;5029498;28;20279;-80
2023/03/31 07:18:14;;;;;;;;;;;;;;;;;;5025523;28;19925;-79
2023/03/31 07:20:42;;;;;;;;;;;;;;;;;;5032651;28;19932;-79
2023/03/31 07:23:14;;;;;;;;;;;;;;;;;;5046870;28;19929;-80
2023/03/31 07:25:42;;;;;;;;;;;;;;;;;;5030041;28;19929;-81
2023/03/31 07:28:09;;;;;;;;;;;;;;;;;;5022313;28;19940;-79
2023/03/31 07:30:37;;;;;;;;;;;;;;;;;;5018082;28;20781;-82
2023/03/31 07:33:05;;;;;;;;;;;;;;;;;;5012382;28;19937;-80
2023/03/31 07:35:37;;;;;;;;;;;;;;;;;;5006370;28;19933;-81
2023/03/31 07:38:05;;;;;;;;;;;;;;;;;;5024063;28;19933;-81
2023/03/31 07:40:37;;;;;;;;;;;;;;;;;;5012432;28;19933;-81
2023/03/31 07:43:05;;;;;;;;;;;;;;;;;;5008011;28;19933;-81
2023/03/31 07:45:32;;;;;;;;;;;;;;;;;;5002378;28;19940;-80
2023/03/31 07:47:59;;;;;;;;;;;;;;;;;;5004573;28;19933;-82
2023/03/31 07:50:27;;;;;;;;;;;;;;;;;;5021545;28;20407;-81
2023/03/31 07:53:01;;;;;;;;;;;;;;;;;;5005319;28;20337;-80
2023/03/31 07:55:29;;;;;;;;;;;;;;;;;;5013347;28;19940;-81
2023/03/31 07:57:56;;;;;;;;;;;;;;;;;;5006443;28;19940;-81
2023/03/31 08:00:24;;;;;;;;;;;;;;;;;;5006123;28;20616;-81
2023/03/31 08:02:51;;;;;;;;;;;;;;;;;;5013563;28;19940;-82
2023/03/31 08:05:19;;;;;;;;;;;;;;;;;;5023754;28;19940;-81
2023/03/31 08:07:47;;;;;;;;;;;;;;;;;;5007502;28;20467;-81
2023/03/31 08:10:14;;;;;;;;;;;;;;;;;;5011402;28;20405;-82
2023/03/31 08:12:47;;;;;;;;;;;;;;;;;;5021360;28;20586;-81
2023/03/31 08:15:19;;;;;;;;;;;;;;;;;;5025574;28;20286;-80
2023/03/31 08:17:52;;;;;;;;;;;;;;;;;;5006544;28;19940;-82
2023/03/31 08:20:19;;;;;;;;;;;;;;;;;;5015688;28;19932;-80
2023/03/31 08:22:52;;;;;;;;;;;;;;;;;;5004553;28;19933;-81
2023/03/31 08:25:24;;;;;;;;;;;;;;;;;;5003295;28;19945;-81
2023/03/31 08:27:52;;;;;;;;;;;;;;;;;;5018474;28;19955;-80
2023/03/31 08:30:19;;;;;;;;;;;;;;;;;;4987829;28;20238;-81
2023/03/31 08:32:47;;;;;;;;;;;;;;;;;;5029557;28;20489;-79
2023/03/31 08:35:14;;;;;;;;;;;;;;;;;;5013632;28;19940;-80
2023/03/31 08:37:42;;;;;;;;;;;;;;;;;;5005876;28;19943;-81
2023/03/31 08:40:10;;;;;;;;;;;;;;;;;;5022901;28;19944;-81
2023/03/31 08:42:37;;;;;;;;;;;;;;;;;;5010995;28;20421;-81
2023/03/31 08:45:05;;;;;;;;;;;;;;;;;;5003933;28;19940;-81
2023/03/31 08:47:33;;;;;;;;;;;;;;;;;;5012983;28;20282;-81
2023/03/31 08:50:06;;;;;;;;;;;;;;;;;;5003965;28;19960;-80
2023/03/31 08:52:33;;;;;;;;;;;;;;;;;;5010346;28;19933;-81
2023/03/31 08:55:01;;;;;;;;;;;;;;;;;;5019031;28;19940;-82
2023/03/31 08:57:28;;;;;;;;;;;;;;;;;;5006174;28;19933;-81
2023/03/31 08:59:57;;;;;;;;;;;;;;;;;;5023163;28;19933;-80
2023/03/31 09:02:25;;;;;;;;;;;;;;;;;;5009123;28;20633;-80
2023/03/31 09:04:57;;;;;;;;;;;;;;;;;;5000097;28;19933;-80
2023/03/31 09:07:25;;;;;;;;;;;;;;;;;;5002288;28;19933;-81
2023/03/31 09:09:52;;;;;;;;;;;;;;;;;;5026397;28;20425;-79
2023/03/31 09:12:20;;;;;;;;;;;;;;;;;;5027473;28;19944;-80
2023/03/31 09:14:47;;;;;;;;;;;;;;;;;;5010230;28;20401;-81
2023/03/31 09:17:15;;;;;;;;;;;;;;;;;;5007041;28;19936;-81
2023/03/31 09:19:42;;;;;;;;;;;;;;;;;;5002209;28;19951;-81
2023/03/31 09:22:15;;;;;;;;;;;;;;;;;;5009330;28;19952;-80
2023/03/31 09:24:42;;;;;;;;;;;;;;;;;;5023834;28;19933;-79
2023/03/31 09:27:15;;;;;;;;;;;;;;;;;;5021136;28;19933;-80
2023/03/31 09:29:42;;;;;;;;;;;;;;;;;;4994410;28;21746;-80
2023/03/31 09:32:15;;;;;;;;;;;;;;;;;;5002999;28;19933;-80
2023/03/31 09:34:42;;;;;;;;;;;;;;;;;;5014938;28;19933;-81
2023/03/31 09:37:10;;;;;;;;;;;;;;;;;;4999114;28;20513;-81
2023/03/31 09:39:37;;;;;;;;;;;;;;;;;;4995138;28;19940;-81
2023/03/31 09:42:10;;;;;;;;;;;;;;;;;;4998546;28;19933;-80
2023/03/31 09:44:42;;;;;;;;;;;;;;;;;;5007271;28;19940;-81
2023/03/31 09:47:10;;;;;;;;;;;;;;;;;;5018545;28;20150;-81
2023/03/31 09:49:37;;;;;;;;;;;;;;;;;;5002589;28;19934;-80
2023/03/31 09:52:10;;;;;;;;;;;;;;;;;;5015918;28;19925;-81
2023/03/31 09:54:38;;;;;;;;;;;;;;;;;;5005940;28;19933;-81
2023/03/31 09:57:05;;;;;;;;;;;;;;;;;;5006993;28;19936;-80
2023/03/31 09:59:33;;;;;;;;;;;;;;;;;;5003826;28;19933;-81
2023/03/31 10:02:01;;;;;;;;;;;;;;;;;;5017566;28;19933;-81
2023/03/31 10:04:29;;;;;;;;;;;;;;;;;;5003751;28;19933;-80
2023/03/31 10:06:56;;;;;;;;;;;;;;;;;;5010679;28;19940;-81
2023/03/31 10:09:24;;;;;;;;;;;;;;;;;;5007568;28;19940;-81
2023/03/31 10:11:57;;;;;;;;;;;;;;;;;;5008340;28;19937;-81
2023/03/31 10:14:25;;;;;;;;;;;;;;;;;;5009928;28;19944;-81
2023/03/31 10:16:53;;;;;;;;;;;;;;;;;;5007904;28;19939;-82
2023/03/31 10:19:26;;;;;;;;;;;;;;;;;;5008642;28;19940;-81
2023/03/31 10:21:53;;;;;;;;;;;;;;;;;;5002504;28;21316;-80
2023/03/31 10:24:27;;;;;;;;;;;;;;;;;;5005073;28;20459;-81
2023/03/31 10:26:55;;;;;;;;;;;;;;;;;;5008955;28;21209;-80
2023/03/31 10:29:24;;;;;;;;;;;;;;;;;;5006592;28;19944;-82
2023/03/31 10:31:56;;;;;;;;;;;;;;;;;;4991870;28;19956;-81
2023/03/31 10:34:24;;;;;;;;;;;;;;;;;;5003358;28;19940;-81
2023/03/31 10:36:52;;;;;;;;;;;;;;;;;;5010977;28;20321;-80
2023/03/31 10:39:19;;;;;;;;;;;;;;;;;;5004089;28;19940;-81
2023/03/31 10:41:47;;;;;;;;;;;;;;;;;;5007749;28;19944;-81
2023/03/31 10:44:20;;;;;;;;;;;;;;;;;;5021913;28;19945;-81
2023/03/31 10:46:48;;;;;;;;;;;;;;;;;;5013050;28;19933;-81
2023/03/31 10:49:16;;;;;;;;;;;;;;;;;;5008372;28;19940;-83
2023/03/31 10:51:49;;;;;;;;;;;;;;;;;;5031559;28;19929;-80
2023/03/31 10:54:21;;;;;;;;;;;;;;;;;;5017483;28;19933;-81
2023/03/31 10:56:49;;;;;;;;;;;;;;;;;;5006662;28;19940;-81
2023/03/31 10:59:16;;;;;;;;;;;;;;;;;;5005987;28;20297;-80
2023/03/31 11:01:44;;;;;;;;;;;;;;;;;;5022993;28;19933;-81
2023/03/31 11:04:12;;;;;;;;;;;;;;;;;;5012844;28;19940;-80
2023/03/31 11:06:39;;;;;;;;;;;;;;;;;;5026789;28;19933;-80
2023/03/31 11:09:12;;;;;;;;;;;;;;;;;;5024279;28;19933;-81
2023/03/31 11:11:39;;;;;;;;;;;;;;;;;;5001348;28;19940;-81
2023/03/31 11:14:12;;;;;;;;;;;;;;;;;;5030623;28;19932;-81
2023/03/31 11:16:39;;;;;;;;;;;;;;;;;;5004578;28;19933;-81
2023/03/31 11:19:12;;;;;;;;;;;;;;;;;;5002278;28;20436;-80
2023/03/31 11:21:40;;;;;;;;;;;;;;;;;;5023019;28;20393;-80
2023/03/31 11:24:12;;;;;;;;;;;;;;;;;;5007839;28;19925;-80
2023/03/31 11:26:45;;;;;;;;;;;;;;;;;;5026235;28;19929;-80
2023/03/31 11:29:17;;;;;;;;;;;;;;;;;;5002465;28;19944;-82
2023/03/31 11:31:50;;;;;;;;;;;;;;;;;;4978905;28;19934;-80
2023/03/31 11:34:23;;;;;;;;;;;;;;;;;;5007097;28;19933;-81
2023/03/31 11:36:56;;;;;;;;;;;;;;;;;;5007625;28;20557;-82
2023/03/31 11:39:23;;;;;;;;;;;;;;;;;;5006219;28;19932;-80
2023/03/31 11:41:51;;;;;;;;;;;;;;;;;;5004003;28;19948;-80
2023/03/31 11:44:23;;;;;;;;;;;;;;;;;;5012629;28;19933;-80
2023/03/31 11:46:51;;;;;;;;;;;;;;;;;;5007833;28;19933;-80
2023/03/31 11:49:20;;;;;;;;;;;;;;;;;;5023591;28;19933;-82
2023/03/31 11:51:47;;;;;;;;;;;;;;;;;;5021680;28;20476;-80
2023/03/31 11:54:15;;;;;;;;;;;;;;;;;;5006756;28;19933;-80
2023/03/31 11:56:48;;;;;;;;;;;;;;;;;;5025004;28;19929;-81
2023/03/31 11:59:15;;;;;;;;;;;;;;;;;;5007615;28;19933;-80
2023/03/31 12:01:43;;;;;;;;;;;;;;;;;;5006826;28;19929;-81
2023/03/31 12:04:10;;;;;;;;;;;;;;;;;;5008179;28;19936;-81
2023/03/31 12:06:38;;;;;;;;;;;;;;;;;;5026860;28;20708;-81
2023/03/31 12:09:06;;;;;;;;;;;;;;;;;;5007407;28;19933;-80
2023/03/31 12:11:34;;;;;;;;;;;;;;;;;;5019472;28;20386;-81
2023/03/31 12:14:01;;;;;;;;;;;;;;;;;;5005203;28;19933;-81
2023/03/31 12:16:29;;;;;;;;;;;;;;;;;;5003411;28;19933;-80
2023/03/31 12:18:57;;;;;;;;;;;;;;;;;;5006218;28;19940;-80
2023/03/31 12:21:25;;;;;;;;;;;;;;;;;;5009295;28;20449;-81
2023/03/31 12:23:52;;;;;;;;;;;;;;;;;;4999718;28;19944;-80
2023/03/31 12:26:20;;;;;;;;;;;;;;;;;;5019351;28;19940;-79
2023/03/31 12:28:47;;;;;;;;;;;;;;;;;;5005124;28;19933;-81
2023/03/31 12:31:15;;;;;;;;;;;;;;;;;;4974679;28;19940;-81
2023/03/31 12:33:42;;;;;;;;;;;;;;;;;;4991794;28;19987;-81
2023/03/31 12:36:10;;;;;;;;;;;;;;;;;;4991921;28;19955;-81
2023/03/31 12:38:37;;;;;;;;;;;;;;;;;;5015696;28;19933;-80
2023/03/31 12:41:06;;;;;;;;;;;;;;;;;;4998519;28;20312;-81
2023/03/31 12:43:38;;;;;;;;;;;;;;;;;;4992865;28;21007;-81
2023/03/31 12:46:06;;;;;;;;;;;;;;;;;;4995131;28;20488;-81
2023/03/31 12:48:33;;;;;;;;;;;;;;;;;;5001664;28;19932;-80
2023/03/31 12:51:01;;;;;;;;;;;;;;;;;;5002062;28;20730;-82
2023/03/31 12:53:29;;;;;;;;;;;;;;;;;;5005744;28;19948;-80
2023/03/31 12:56:01;;;;;;;;;;;;;;;;;;5003750;28;19933;-80
2023/03/31 12:58:30;;;;;;;;;;;;;;;;;;5003956;28;19933;-80
2023/03/31 13:00:58;;;;;;;;;;;;;;;;;;5022376;28;19933;-80
2023/03/31 13:03:25;;;;;;;;;;;;;;;;;;5019449;28;19933;-80
2023/03/31 13:05:53;;;;;;;;;;;;;;;;;;5004757;28;19925;-81
2023/03/31 13:08:20;;;;;;;;;;;;;;;;;;5027032;28;20357;-81
2023/03/31 13:10:48;;;;;;;;;;;;;;;;;;5004822;28;19933;-81
2023/03/31 13:13:15;;;;;;;;;;;;;;;;;;5008118;28;19929;-83
2023/03/31 13:15:43;;;;;;;;;;;;;;;;;;5021909;28;19929;-80
2023/03/31 13:18:10;;;;;;;;;;;;;;;;;;5008305;28;19937;-79
2023/03/31 13:20:43;;;;;;;;;;;;;;;;;;5001239;28;20774;-80
2023/03/31 13:23:10;;;;;;;;;;;;;;;;;;5017473;28;19929;-82
2023/03/31 13:25:43;;;;;;;;;;;;;;;;;;5024327;28;19933;-81
2023/03/31 13:28:12;;;;;;;;;;;;;;;;;;5004034;28;20404;-80
2023/03/31 13:30:45;;;;;;;;;;;;;;;;;;4989057;28;20752;-81
2023/03/31 13:33:12;;;;;;;;;;;;;;;;;;5003024;28;19932;-81
2023/03/31 13:35:45;;;;;;;;;;;;;;;;;;5001369;28;19948;-82
2023/03/31 13:38:17;;;;;;;;;;;;;;;;;;5009306;28;19925;-81
2023/03/31 13:40:47;;;;;;;;;;;;;;;;;;5004183;28;20305;-81
2023/03/31 13:43:15;;;;;;;;;;;;;;;;;;5022165;28;19933;-81
2023/03/31 13:45:43;;;;;;;;;;;;;;;;;;5005881;28;19929;-81
2023/03/31 13:48:13;;;;;;;;;;;;;;;;;;5023421;28;19940;-82
2023/03/31 13:50:50;;;;;;;;;;;;;;;;;;5016670;28;21346;-82
2023/03/31 13:53:18;;;;;;;;;;;;;;;;;;5002099;28;19933;-82
2023/03/31 13:55:50;;;;;;;;;;;;;;;;;;5000821;28;19933;-81
2023/03/31 13:58:23;;;;;;;;;;;;;;;;;;5012719;28;19941;-81
2023/03/31 14:00:51;;;;;;;;;;;;;;;;;;5000198;28;20218;-81
2023/03/31 14:03:23;;;;;;;;;;;;;;;;;;5006288;28;19944;-83
2023/03/31 14:05:51;;;;;;;;;;;;;;;;;;5001742;28;19940;-81
2023/03/31 14:08:18;;;;;;;;;;;;;;;;;;5009285;28;19941;-81
2023/03/31 14:10:51;;;;;;;;;;;;;;;;;;4999468;28;19933;-81
2023/03/31 14:13:18;;;;;;;;;;;;;;;;;;5005193;28;19933;-83
2023/03/31 14:15:46;;;;;;;;;;;;;;;;;;5004562;28;19933;-82
2023/03/31 14:18:19;;;;;;;;;;;;;;;;;;5018141;28;20301;-83
2023/03/31 14:20:51;;;;;;;;;;;;;;;;;;5008274;28;19933;-82
2023/03/31 14:23:19;;;;;;;;;;;;;;;;;;4999021;28;19933;-83
2023/03/31 14:25:46;;;;;;;;;;;;;;;;;;5002870;28;20021;-85
2023/03/31 14:28:15;;;;;;;;;;;;;;;;;;5001573;28;19933;-84
2023/03/31 14:30:45;;;;;;;;;;;;;;;;;;4974322;28;20389;-84
2023/03/31 14:33:13;;;;;;;;;;;;;;;;;;5002062;28;20401;-84
2023/03/31 14:35:41;;;;;;;;;;;;;;;;;;5005776;28;20176;-82
2023/03/31 14:38:14;;;;;;;;;;;;;;;;;;4998474;28;19933;-82
2023/03/31 14:40:42;;;;;;;;;;;;;;;;;;5011019;28;19941;-83
2023/03/31 14:43:09;;;;;;;;;;;;;;;;;;5006696;28;19941;-83
2023/03/31 14:45:42;;;;;;;;;;;;;;;;;;5004363;28;20587;-81
2023/03/31 14:48:15;;;;;;;;;;;;;;;;;;5017317;28;19933;-81
2023/03/31 14:50:42;;;;;;;;;;;;;;;;;;5001230;28;19933;-82
2023/03/31 14:53:10;;;;;;;;;;;;;;;;;;5005934;28;20294;-82
2023/03/31 14:55:38;;;;;;;;;;;;;;;;;;5026341;28;19939;-82
2023/03/31 14:58:11;;;;;;;;;;;;;;;;;;5008241;28;20392;-81
2023/03/31 15:00:43;;;;;;;;;;;;;;;;;;5005274;28;20409;-81
2023/03/31 15:03:16;;;;;;;;;;;;;;;;;;5011997;28;19933;-82
2023/03/31 15:05:44;;;;;;;;;;;;;;;;;;5008050;28;19933;-81
2023/03/31 15:08:11;;;;;;;;;;;;;;;;;;5010643;28;19956;-82
2023/03/31 15:10:39;;;;;;;;;;;;;;;;;;5000118;28;19944;-81
2023/03/31 15:13:06;;;;;;;;;;;;;;;;;;5001060;28;19933;-81
2023/03/31 15:15:34;;;;;;;;;;;;;;;;;;5015119;28;19933;-80
2023/03/31 15:18:01;;;;;;;;;;;;;;;;;;5002010;28;19929;-81
2023/03/31 15:20:29;;;;;;;;;;;;;;;;;;5003541;28;19933;-81
2023/03/31 15:23:02;;;;;;;;;;;;;;;;;;5003975;28;19933;-81
2023/03/31 15:25:30;;;;;;;;;;;;;;;;;;5001974;28;21316;-81
2023/03/31 15:27:57;;;;;;;;;;;;;;;;;;5005163;28;19933;-81
2023/03/31 15:30:25;;;;;;;;;;;;;;;;;;4983490;28;19933;-81
2023/03/31 15:32:52;;;;;;;;;;;;;;;;;;5002072;28;21660;-80
2023/03/31 15:35:20;;;;;;;;;;;;;;;;;;5017275;28;19967;-81
2023/03/31 15:37:52;;;;;;;;;;;;;;;;;;5002717;28;19933;-81
2023/03/31 15:40:20;;;;;;;;;;;;;;;;;;5006087;28;19936;-81
2023/03/31 15:42:47;;;;;;;;;;;;;;;;;;5008361;28;19929;-80
2023/03/31 15:45:15;;;;;;;;;;;;;;;;;;5014219;28;19940;-81
2023/03/31 15:47:43;;;;;;;;;;;;;;;;;;5000966;28;21530;-81
2023/03/31 15:50:12;;;;;;;;;;;;;;;;;;5006042;28;19980;-82
2023/03/31 15:52:40;;;;;;;;;;;;;;;;;;5008814;28;19944;-81
2023/03/31 15:55:07;;;;;;;;;;;;;;;;;;5006348;28;20543;-82
2023/03/31 15:57:40;;;;;;;;;;;;;;;;;;5014210;28;19933;-82
2023/03/31 16:00:07;;;;;;;;;;;;;;;;;;5005384;28;19941;-81
2023/03/31 16:02:40;;;;;;;;;;;;;;;;;;5008762;28;20502;-81
2023/03/31 16:05:12;;;;;;;;;;;;;;;;;;5025660;28;20413;-82
2023/03/31 16:07:41;;;;;;;;;;;;;;;;;;5014500;28;19929;-81
2023/03/31 16:10:08;;;;;;;;;;;;;;;;;;5013563;28;19929;-81
2023/03/31 16:12:42;;;;;;;;;;;;;;;;;;5000720;28;19933;-81
2023/03/31 16:15:09;;;;;;;;;;;;;;;;;;5001638;28;19933;-81
2023/03/31 16:17:37;;;;;;;;;;;;;;;;;;5028042;28;19928;-81
2023/03/31 16:20:07;;;;;;;;;;;;;;;;;;5009807;28;20353;-80
2023/03/31 16:22:36;;;;;;;;;;;;;;;;;;5015292;28;19925;-80
2023/03/31 16:25:03;;;;;;;;;;;;;;;;;;5002368;28;20321;-81
2023/03/31 16:27:31;;;;;;;;;;;;;;;;;;5020800;28;19937;-82
2023/03/31 16:30:01;;;;;;;;;;;;;;;;;;4987163;28;19929;-81
2023/03/31 16:32:29;;;;;;;;;;;;;;;;;;5000924;28;19933;-81
2023/03/31 16:35:01;;;;;;;;;;;;;;;;;;5001866;28;19933;-81
2023/03/31 16:37:29;;;;;;;;;;;;;;;;;;4998906;28;19933;-81
2023/03/31 16:40:03;;;;;;;;;;;;;;;;;;5001448;28;19940;-81
2023/03/31 16:42:31;;;;;;;;;;;;;;;;;;5002170;28;19933;-81
2023/03/31 16:45:04;;;;;;;;;;;;;;;;;;4999802;28;20389;-81
2023/03/31 16:47:32;;;;;;;;;;;;;;;;;;5001746;28;21842;-81
2023/03/31 16:49:59;;;;;;;;;;;;;;;;;;5002060;28;19940;-80
2023/03/31 16:52:32;;;;;;;;;;;;;;;;;;5005285;28;19929;-81
2023/03/31 16:55:04;;;;;;;;;;;;;;;;;;5021486;28;19933;-81
2023/03/31 16:57:32;;;;;;;;;;;;;;;;;;5023237;28;19933;-81
2023/03/31 17:00:04;;;;;;;;;;;;;;;;;;4999643;28;20021;-81